sensor_id;sensor_type;location;lat;lon;timestamp;temperature;humidity
53208;DHT22;39093;52.788;6.940;2022-08-01T00:00:07;18.60;99.90
53208;DHT22;39093;52.788;6.940;2022-08-01T00:02:36;18.60;99.90
53208;DHT22;39093;52.788;6.940;2022-08-01T00:05:08;18.60;99.90
53208;DHT22;39093;52.788;6.940;2022-08-01T00:07:35;18.60;99.90
53208;DHT22;39093;52.788;6.940;2022-08-01T00:10:04;18.60;99.90
53208;DHT22;39093;52.788;6.940;2022-08-01T00:12:31;18.60;99.90
53208;DHT22;39093;52.788;6.940;2022-08-01T00:14:58;18.50;99.90
53208;DHT22;39093;52.788;6.940;2022-08-01T00:17:25;18.50;99.90
53208;DHT22;39093;52.788;6.940;2022-08-01T00:19:52;18.50;99.90
53208;DHT22;39093;52.788;6.940;2022-08-01T00:22:19;18.50;99.90
53208;DHT22;39093;52.788;6.940;2022-08-01T00:24:46;18.50;99.90
53208;DHT22;39093;52.788;6.940;2022-08-01T00:27:13;18.50;99.90
53208;DHT22;39093;52.788;6.940;2022-08-01T00:29:40;18.50;99.90
53208;DHT22;39093;52.788;6.940;2022-08-01T00:32:27;18.50;99.90
53208;DHT22;39093;52.788;6.940;2022-08-01T00:34:56;18.40;99.90
53208;DHT22;39093;52.788;6.940;2022-08-01T00:37:23;18.40;99.90
53208;DHT22;39093;52.788;6.940;2022-08-01T00:39:49;18.50;99.90
53208;DHT22;39093;52.788;6.940;2022-08-01T00:42:16;18.50;99.90
53208;DHT22;39093;52.788;6.940;2022-08-01T00:44:43;18.50;99.90
53208;DHT22;39093;52.788;6.940;2022-08-01T00:47:10;18.40;99.90
53208;DHT22;39093;52.788;6.940;2022-08-01T00:49:37;18.40;99.90
53208;DHT22;39093;52.788;6.940;2022-08-01T00:52:05;18.40;99.90
53208;DHT22;39093;52.788;6.940;2022-08-01T00:54:33;18.40;99.90
53208;DHT22;39093;52.788;6.940;2022-08-01T00:57:00;18.40;99.90
53208;DHT22;39093;52.788;6.940;2022-08-01T00:59:27;18.40;99.90
53208;DHT22;39093;52.788;6.940;2022-08-01T01:01:54;18.40;99.90
53208;DHT22;39093;52.788;6.940;2022-08-01T01:04:21;18.40;99.90
53208;DHT22;39093;52.788;6.940;2022-08-01T01:09:33;18.30;99.90
53208;DHT22;39093;52.788;6.940;2022-08-01T01:12:50;18.40;99.90
53208;DHT22;39093;52.788;6.940;2022-08-01T01:17:59;18.30;99.90
53208;DHT22;39093;52.788;6.940;2022-08-01T01:20:42;18.30;99.90
53208;DHT22;39093;52.788;6.940;2022-08-01T01:23:40;18.30;99.90
53208;DHT22;39093;52.788;6.940;2022-08-01T01:26:43;18.30;99.90
53208;DHT22;39093;52.788;6.940;2022-08-01T01:29:21;18.30;99.90
53208;DHT22;39093;52.788;6.940;2022-08-01T01:31:55;18.30;99.90
53208;DHT22;39093;52.788;6.940;2022-08-01T01:34:23;18.30;99.90
53208;DHT22;39093;52.788;6.940;2022-08-01T01:36:52;18.30;99.90
53208;DHT22;39093;52.788;6.940;2022-08-01T01:39:21;18.30;99.90
53208;DHT22;39093;52.788;6.940;2022-08-01T01:41:49;18.30;99.90
53208;DHT22;39093;52.788;6.940;2022-08-01T01:44:18;18.30;99.90
53208;DHT22;39093;52.788;6.940;2022-08-01T01:46:46;18.30;99.90
53208;DHT22;39093;52.788;6.940;2022-08-01T01:49:14;18.30;99.90
53208;DHT22;39093;52.788;6.940;2022-08-01T01:51:42;18.30;99.90
53208;DHT22;39093;52.788;6.940;2022-08-01T01:54:32;18.30;99.90
53208;DHT22;39093;52.788;6.940;2022-08-01T01:57:01;18.30;99.90
53208;DHT22;39093;52.788;6.940;2022-08-01T01:59:30;18.30;99.90
53208;DHT22;39093;52.788;6.940;2022-08-01T02:02:00;18.30;99.90
53208;DHT22;39093;52.788;6.940;2022-08-01T02:04:34;18.30;99.90
53208;DHT22;39093;52.788;6.940;2022-08-01T02:07:03;18.30;99.90
53208;DHT22;39093;52.788;6.940;2022-08-01T02:09:30;18.30;99.90
53208;DHT22;39093;52.788;6.940;2022-08-01T02:11:59;18.20;99.90
53208;DHT22;39093;52.788;6.940;2022-08-01T02:14:35;18.30;99.90
53208;DHT22;39093;52.788;6.940;2022-08-01T02:17:03;18.20;99.90
53208;DHT22;39093;52.788;6.940;2022-08-01T02:19:32;18.20;99.90
53208;DHT22;39093;52.788;6.940;2022-08-01T02:22:27;18.20;99.90
53208;DHT22;39093;52.788;6.940;2022-08-01T02:25:10;18.20;99.90
53208;DHT22;39093;52.788;6.940;2022-08-01T02:30:23;18.20;99.90
53208;DHT22;39093;52.788;6.940;2022-08-01T02:33:02;18.10;99.90
53208;DHT22;39093;52.788;6.940;2022-08-01T02:35:33;18.10;99.90
53208;DHT22;39093;52.788;6.940;2022-08-01T02:38:24;18.10;99.90
53208;DHT22;39093;52.788;6.940;2022-08-01T02:40:52;18.10;99.90
53208;DHT22;39093;52.788;6.940;2022-08-01T02:43:23;18.10;99.90
53208;DHT22;39093;52.788;6.940;2022-08-01T02:45:53;18.00;99.90
53208;DHT22;39093;52.788;6.940;2022-08-01T02:48:22;18.10;99.90
53208;DHT22;39093;52.788;6.940;2022-08-01T02:50:54;18.10;99.90
53208;DHT22;39093;52.788;6.940;2022-08-01T02:53:23;18.10;99.90
53208;DHT22;39093;52.788;6.940;2022-08-01T02:56:11;18.00;99.90
53208;DHT22;39093;52.788;6.940;2022-08-01T02:58:40;18.00;99.90
53208;DHT22;39093;52.788;6.940;2022-08-01T03:01:08;18.00;99.90
53208;DHT22;39093;52.788;6.940;2022-08-01T03:03:36;18.00;99.90
53208;DHT22;39093;52.788;6.940;2022-08-01T03:06:04;18.00;99.90
53208;DHT22;39093;52.788;6.940;2022-08-01T03:08:32;18.00;99.90
53208;DHT22;39093;52.788;6.940;2022-08-01T03:11:02;18.00;99.90
53208;DHT22;39093;52.788;6.940;2022-08-01T03:13:30;18.00;99.90
53208;DHT22;39093;52.788;6.940;2022-08-01T03:15:59;17.90;99.90
53208;DHT22;39093;52.788;6.940;2022-08-01T03:18:28;17.90;99.90
53208;DHT22;39093;52.788;6.940;2022-08-01T03:20:56;17.90;99.90
53208;DHT22;39093;52.788;6.940;2022-08-01T03:23:24;17.90;99.90
53208;DHT22;39093;52.788;6.940;2022-08-01T03:26:05;17.90;99.90
53208;DHT22;39093;52.788;6.940;2022-08-01T03:28:32;17.90;99.90
53208;DHT22;39093;52.788;6.940;2022-08-01T03:31:00;17.90;99.90
53208;DHT22;39093;52.788;6.940;2022-08-01T03:33:28;17.90;99.90
53208;DHT22;39093;52.788;6.940;2022-08-01T03:35:55;17.90;99.90
53208;DHT22;39093;52.788;6.940;2022-08-01T03:38:25;17.90;99.90
53208;DHT22;39093;52.788;6.940;2022-08-01T03:41:01;17.80;99.90
53208;DHT22;39093;52.788;6.940;2022-08-01T03:43:32;17.80;99.90
53208;DHT22;39093;52.788;6.940;2022-08-01T03:46:05;17.80;99.90
53208;DHT22;39093;52.788;6.940;2022-08-01T03:48:38;17.70;99.90
53208;DHT22;39093;52.788;6.940;2022-08-01T03:51:07;17.70;99.90
53208;DHT22;39093;52.788;6.940;2022-08-01T03:53:35;17.70;99.90
53208;DHT22;39093;52.788;6.940;2022-08-01T03:56:08;17.70;99.90
53208;DHT22;39093;52.788;6.940;2022-08-01T03:58:39;17.70;99.90
53208;DHT22;39093;52.788;6.940;2022-08-01T04:01:07;17.60;99.90
53208;DHT22;39093;52.788;6.940;2022-08-01T04:03:42;17.60;99.90
53208;DHT22;39093;52.788;6.940;2022-08-01T04:06:09;17.60;99.90
53208;DHT22;39093;52.788;6.940;2022-08-01T04:08:38;17.70;99.90
53208;DHT22;39093;52.788;6.940;2022-08-01T04:11:05;17.60;99.90
53208;DHT22;39093;52.788;6.940;2022-08-01T04:13:32;17.60;99.90
53208;DHT22;39093;52.788;6.940;2022-08-01T04:16:04;17.60;99.90
53208;DHT22;39093;52.788;6.940;2022-08-01T04:18:31;17.60;99.90
53208;DHT22;39093;52.788;6.940;2022-08-01T04:20:58;17.60;99.90
53208;DHT22;39093;52.788;6.940;2022-08-01T04:23:27;17.60;99.90
53208;DHT22;39093;52.788;6.940;2022-08-01T04:25:55;17.60;99.90
53208;DHT22;39093;52.788;6.940;2022-08-01T04:28:24;17.60;99.90
53208;DHT22;39093;52.788;6.940;2022-08-01T04:30:54;17.60;99.90
53208;DHT22;39093;52.788;6.940;2022-08-01T04:33:28;17.60;99.90
53208;DHT22;39093;52.788;6.940;2022-08-01T04:35:57;17.70;99.90
53208;DHT22;39093;52.788;6.940;2022-08-01T04:38:30;17.70;99.90
53208;DHT22;39093;52.788;6.940;2022-08-01T04:40:58;17.60;99.90
53208;DHT22;39093;52.788;6.940;2022-08-01T04:43:36;17.60;99.90
53208;DHT22;39093;52.788;6.940;2022-08-01T04:46:04;17.70;99.90
53208;DHT22;39093;52.788;6.940;2022-08-01T04:48:33;17.60;99.90
53208;DHT22;39093;52.788;6.940;2022-08-01T04:51:01;17.60;99.90
53208;DHT22;39093;52.788;6.940;2022-08-01T04:53:27;17.70;99.90
53208;DHT22;39093;52.788;6.940;2022-08-01T04:55:54;17.60;99.90
53208;DHT22;39093;52.788;6.940;2022-08-01T04:58:22;17.60;99.90
53208;DHT22;39093;52.788;6.940;2022-08-01T05:00:49;17.60;99.90
53208;DHT22;39093;52.788;6.940;2022-08-01T05:03:16;17.60;99.90
53208;DHT22;39093;52.788;6.940;2022-08-01T05:05:43;17.60;99.90
53208;DHT22;39093;52.788;6.940;2022-08-01T05:08:10;17.60;99.90
53208;DHT22;39093;52.788;6.940;2022-08-01T05:10:37;17.60;99.90
53208;DHT22;39093;52.788;6.940;2022-08-01T05:13:04;17.60;99.90
53208;DHT22;39093;52.788;6.940;2022-08-01T05:15:34;17.60;99.90
53208;DHT22;39093;52.788;6.940;2022-08-01T05:18:03;17.60;99.90
53208;DHT22;39093;52.788;6.940;2022-08-01T05:20:30;17.60;99.90
53208;DHT22;39093;52.788;6.940;2022-08-01T05:22:57;17.60;99.90
53208;DHT22;39093;52.788;6.940;2022-08-01T05:25:24;17.60;99.90
53208;DHT22;39093;52.788;6.940;2022-08-01T05:28:11;17.50;99.90
53208;DHT22;39093;52.788;6.940;2022-08-01T05:30:44;17.60;99.90
53208;DHT22;39093;52.788;6.940;2022-08-01T05:33:11;17.60;99.90
53208;DHT22;39093;52.788;6.940;2022-08-01T05:35:38;17.50;99.90
53208;DHT22;39093;52.788;6.940;2022-08-01T05:38:15;17.50;99.90
53208;DHT22;39093;52.788;6.940;2022-08-01T05:40:42;17.60;99.90
53208;DHT22;39093;52.788;6.940;2022-08-01T05:43:09;17.50;99.90
53208;DHT22;39093;52.788;6.940;2022-08-01T05:45:35;17.50;99.90
53208;DHT22;39093;52.788;6.940;2022-08-01T05:48:03;17.60;99.90
53208;DHT22;39093;52.788;6.940;2022-08-01T05:50:29;17.50;99.90
53208;DHT22;39093;52.788;6.940;2022-08-01T05:52:56;17.50;99.90
53208;DHT22;39093;52.788;6.940;2022-08-01T05:55:23;17.50;99.90
53208;DHT22;39093;52.788;6.940;2022-08-01T05:57:50;17.50;99.90
53208;DHT22;39093;52.788;6.940;2022-08-01T06:00:17;17.50;99.90
53208;DHT22;39093;52.788;6.940;2022-08-01T06:02:44;17.50;99.90
53208;DHT22;39093;52.788;6.940;2022-08-01T06:05:11;17.50;99.90
53208;DHT22;39093;52.788;6.940;2022-08-01T06:07:39;17.50;99.90
53208;DHT22;39093;52.788;6.940;2022-08-01T06:10:07;17.50;99.90
53208;DHT22;39093;52.788;6.940;2022-08-01T06:12:35;17.50;99.90
53208;DHT22;39093;52.788;6.940;2022-08-01T06:15:03;17.60;99.90
53208;DHT22;39093;52.788;6.940;2022-08-01T06:17:30;17.50;99.90
53208;DHT22;39093;52.788;6.940;2022-08-01T06:19:57;17.50;99.90
53208;DHT22;39093;52.788;6.940;2022-08-01T06:22:24;17.50;99.90
53208;DHT22;39093;52.788;6.940;2022-08-01T06:24:51;17.50;99.90
53208;DHT22;39093;52.788;6.940;2022-08-01T06:27:18;17.60;99.90
53208;DHT22;39093;52.788;6.940;2022-08-01T06:29:48;17.50;99.90
53208;DHT22;39093;52.788;6.940;2022-08-01T06:32:20;17.50;99.90
53208;DHT22;39093;52.788;6.940;2022-08-01T06:34:52;17.50;99.90
53208;DHT22;39093;52.788;6.940;2022-08-01T06:37:19;17.40;99.90
53208;DHT22;39093;52.788;6.940;2022-08-01T06:39:46;17.40;99.90
53208;DHT22;39093;52.788;6.940;2022-08-01T06:42:13;17.50;99.90
53208;DHT22;39093;52.788;6.940;2022-08-01T06:44:41;17.50;99.90
53208;DHT22;39093;52.788;6.940;2022-08-01T06:47:08;17.50;99.90
53208;DHT22;39093;52.788;6.940;2022-08-01T06:49:35;17.50;99.90
53208;DHT22;39093;52.788;6.940;2022-08-01T06:52:02;17.50;99.90
53208;DHT22;39093;52.788;6.940;2022-08-01T06:54:30;17.50;99.90
53208;DHT22;39093;52.788;6.940;2022-08-01T06:56:57;17.50;99.90
53208;DHT22;39093;52.788;6.940;2022-08-01T06:59:24;17.60;99.90
53208;DHT22;39093;52.788;6.940;2022-08-01T07:01:51;17.70;99.90
53208;DHT22;39093;52.788;6.940;2022-08-01T07:04:18;17.70;99.90
53208;DHT22;39093;52.788;6.940;2022-08-01T07:06:44;17.70;99.90
53208;DHT22;39093;52.788;6.940;2022-08-01T07:09:11;17.70;99.90
53208;DHT22;39093;52.788;6.940;2022-08-01T07:11:40;17.70;99.90
53208;DHT22;39093;52.788;6.940;2022-08-01T07:14:07;17.70;99.90
53208;DHT22;39093;52.788;6.940;2022-08-01T07:16:34;17.80;99.90
53208;DHT22;39093;52.788;6.940;2022-08-01T07:19:01;17.80;99.90
53208;DHT22;39093;52.788;6.940;2022-08-01T07:21:28;17.80;99.90
53208;DHT22;39093;52.788;6.940;2022-08-01T07:24:08;17.90;99.90
53208;DHT22;39093;52.788;6.940;2022-08-01T07:26:47;18.00;99.90
53208;DHT22;39093;52.788;6.940;2022-08-01T07:29:23;18.00;99.90
53208;DHT22;39093;52.788;6.940;2022-08-01T07:31:52;18.10;99.90
53208;DHT22;39093;52.788;6.940;2022-08-01T07:34:20;18.10;99.90
53208;DHT22;39093;52.788;6.940;2022-08-01T07:36:47;18.20;99.90
53208;DHT22;39093;52.788;6.940;2022-08-01T07:39:14;18.20;99.90
53208;DHT22;39093;52.788;6.940;2022-08-01T07:41:41;18.30;99.90
53208;DHT22;39093;52.788;6.940;2022-08-01T07:44:28;18.40;99.90
53208;DHT22;39093;52.788;6.940;2022-08-01T07:46:55;18.40;99.90
53208;DHT22;39093;52.788;6.940;2022-08-01T07:49:22;18.40;99.90
53208;DHT22;39093;52.788;6.940;2022-08-01T07:51:49;18.40;99.90
53208;DHT22;39093;52.788;6.940;2022-08-01T07:54:33;18.40;99.90
53208;DHT22;39093;52.788;6.940;2022-08-01T07:57:02;18.30;99.90
53208;DHT22;39093;52.788;6.940;2022-08-01T07:59:29;18.30;99.90
53208;DHT22;39093;52.788;6.940;2022-08-01T08:01:56;18.30;99.90
53208;DHT22;39093;52.788;6.940;2022-08-01T08:04:23;18.20;99.90
53208;DHT22;39093;52.788;6.940;2022-08-01T08:06:50;18.20;99.90
53208;DHT22;39093;52.788;6.940;2022-08-01T08:09:18;18.20;99.90
53208;DHT22;39093;52.788;6.940;2022-08-01T08:11:46;18.20;99.90
53208;DHT22;39093;52.788;6.940;2022-08-01T08:14:18;18.20;99.90
53208;DHT22;39093;52.788;6.940;2022-08-01T08:16:45;18.10;99.90
53208;DHT22;39093;52.788;6.940;2022-08-01T08:19:12;18.10;99.90
53208;DHT22;39093;52.788;6.940;2022-08-01T08:21:39;18.20;99.90
53208;DHT22;39093;52.788;6.940;2022-08-01T08:24:07;18.10;99.90
53208;DHT22;39093;52.788;6.940;2022-08-01T08:26:54;18.10;99.90
53208;DHT22;39093;52.788;6.940;2022-08-01T08:29:22;18.10;99.90
53208;DHT22;39093;52.788;6.940;2022-08-01T08:31:50;18.20;99.90
53208;DHT22;39093;52.788;6.940;2022-08-01T08:34:19;18.20;99.90
53208;DHT22;39093;52.788;6.940;2022-08-01T08:36:47;18.20;99.90
53208;DHT22;39093;52.788;6.940;2022-08-01T08:39:15;18.20;99.90
53208;DHT22;39093;52.788;6.940;2022-08-01T08:41:45;18.30;99.90
53208;DHT22;39093;52.788;6.940;2022-08-01T08:44:16;18.30;99.90
53208;DHT22;39093;52.788;6.940;2022-08-01T08:46:45;18.40;99.90
53208;DHT22;39093;52.788;6.940;2022-08-01T08:49:16;18.40;99.90
53208;DHT22;39093;52.788;6.940;2022-08-01T08:51:48;18.40;99.90
53208;DHT22;39093;52.788;6.940;2022-08-01T08:54:16;18.50;99.90
53208;DHT22;39093;52.788;6.940;2022-08-01T08:56:45;18.50;99.90
53208;DHT22;39093;52.788;6.940;2022-08-01T08:59:13;18.50;99.90
53208;DHT22;39093;52.788;6.940;2022-08-01T09:01:41;18.60;99.90
53208;DHT22;39093;52.788;6.940;2022-08-01T09:04:09;18.60;99.90
53208;DHT22;39093;52.788;6.940;2022-08-01T09:06:35;18.70;99.90
53208;DHT22;39093;52.788;6.940;2022-08-01T09:09:03;18.80;99.90
53208;DHT22;39093;52.788;6.940;2022-08-01T09:11:30;18.80;99.90
53208;DHT22;39093;52.788;6.940;2022-08-01T09:14:10;18.90;99.90
53208;DHT22;39093;52.788;6.940;2022-08-01T09:16:41;19.00;99.90
53208;DHT22;39093;52.788;6.940;2022-08-01T09:19:19;19.00;99.90
53208;DHT22;39093;52.788;6.940;2022-08-01T09:22:08;19.10;99.90
53208;DHT22;39093;52.788;6.940;2022-08-01T09:24:36;19.20;99.90
53208;DHT22;39093;52.788;6.940;2022-08-01T09:27:18;19.30;99.90
53208;DHT22;39093;52.788;6.940;2022-08-01T09:29:50;19.50;99.90
53208;DHT22;39093;52.788;6.940;2022-08-01T09:32:31;19.60;99.90
53208;DHT22;39093;52.788;6.940;2022-08-01T09:35:26;19.70;99.90
53208;DHT22;39093;52.788;6.940;2022-08-01T09:38:18;19.70;99.90
53208;DHT22;39093;52.788;6.940;2022-08-01T09:40:56;19.80;99.90
53208;DHT22;39093;52.788;6.940;2022-08-01T09:43:26;19.80;99.90
53208;DHT22;39093;52.788;6.940;2022-08-01T09:45:57;19.80;99.90
53208;DHT22;39093;52.788;6.940;2022-08-01T09:48:25;19.80;99.90
53208;DHT22;39093;52.788;6.940;2022-08-01T09:50:54;19.80;99.90
53208;DHT22;39093;52.788;6.940;2022-08-01T09:53:44;19.90;99.90
53208;DHT22;39093;52.788;6.940;2022-08-01T09:56:19;20.00;99.90
53208;DHT22;39093;52.788;6.940;2022-08-01T09:58:51;20.00;99.90
53208;DHT22;39093;52.788;6.940;2022-08-01T10:01:27;20.10;99.90
53208;DHT22;39093;52.788;6.940;2022-08-01T10:06:40;20.20;99.90
53208;DHT22;39093;52.788;6.940;2022-08-01T10:09:11;20.30;99.90
53208;DHT22;39093;52.788;6.940;2022-08-01T10:11:43;20.40;99.90
53208;DHT22;39093;52.788;6.940;2022-08-01T10:14:11;20.50;99.90
53208;DHT22;39093;52.788;6.940;2022-08-01T10:16:45;20.50;99.90
53208;DHT22;39093;52.788;6.940;2022-08-01T10:19:23;20.40;99.90
53208;DHT22;39093;52.788;6.940;2022-08-01T10:21:55;20.30;99.90
53208;DHT22;39093;52.788;6.940;2022-08-01T10:24:28;20.30;99.90
53208;DHT22;39093;52.788;6.940;2022-08-01T10:26:59;20.40;99.90
53208;DHT22;39093;52.788;6.940;2022-08-01T10:29:47;20.50;99.90
53208;DHT22;39093;52.788;6.940;2022-08-01T10:32:35;20.60;99.90
53208;DHT22;39093;52.788;6.940;2022-08-01T10:35:06;20.70;99.90
53208;DHT22;39093;52.788;6.940;2022-08-01T10:37:41;20.80;99.90
53208;DHT22;39093;52.788;6.940;2022-08-01T10:40:19;20.90;99.90
53208;DHT22;39093;52.788;6.940;2022-08-01T10:43:03;21.00;99.90
53208;DHT22;39093;52.788;6.940;2022-08-01T10:45:30;21.00;99.90
53208;DHT22;39093;52.788;6.940;2022-08-01T10:48:14;20.90;99.90
53208;DHT22;39093;52.788;6.940;2022-08-01T10:50:48;20.90;99.90
53208;DHT22;39093;52.788;6.940;2022-08-01T10:53:22;20.90;99.90
53208;DHT22;39093;52.788;6.940;2022-08-01T10:58:36;21.00;99.90
53208;DHT22;39093;52.788;6.940;2022-08-01T11:01:16;21.00;99.90
53208;DHT22;39093;52.788;6.940;2022-08-01T11:12:07;21.30;99.90
53208;DHT22;39093;52.788;6.940;2022-08-01T12:20:47;21.30;99.90
53208;DHT22;39093;52.788;6.940;2022-08-01T12:23:22;21.50;99.90
53208;DHT22;39093;52.788;6.940;2022-08-01T12:25:52;21.80;99.90
53208;DHT22;39093;52.788;6.940;2022-08-01T12:28:20;22.10;99.90
53208;DHT22;39093;52.788;6.940;2022-08-01T12:30:48;22.30;99.90
53208;DHT22;39093;52.788;6.940;2022-08-01T12:33:18;22.30;99.90
53208;DHT22;39093;52.788;6.940;2022-08-01T12:35:45;22.10;99.90
53208;DHT22;39093;52.788;6.940;2022-08-01T12:38:21;21.80;99.90
53208;DHT22;39093;52.788;6.940;2022-08-01T12:43:33;21.70;99.90
53208;DHT22;39093;52.788;6.940;2022-08-01T12:46:01;21.70;99.90
53208;DHT22;39093;52.788;6.940;2022-08-01T12:48:30;21.70;99.90
53208;DHT22;39093;52.788;6.940;2022-08-01T12:50:58;21.90;99.90
53208;DHT22;39093;52.788;6.940;2022-08-01T12:53:28;22.00;99.90
53208;DHT22;39093;52.788;6.940;2022-08-01T12:56:08;22.20;99.90
53208;DHT22;39093;52.788;6.940;2022-08-01T12:58:36;22.40;99.90
53208;DHT22;39093;52.788;6.940;2022-08-01T13:01:05;22.50;99.90
53208;DHT22;39093;52.788;6.940;2022-08-01T13:03:33;22.40;99.90
53208;DHT22;39093;52.788;6.940;2022-08-01T13:06:00;22.30;99.90
53208;DHT22;39093;52.788;6.940;2022-08-01T13:08:32;22.10;99.90
53208;DHT22;39093;52.788;6.940;2022-08-01T13:11:10;22.00;99.90
53208;DHT22;39093;52.788;6.940;2022-08-01T13:13:51;22.00;99.90
53208;DHT22;39093;52.788;6.940;2022-08-01T13:16:21;22.10;99.90
53208;DHT22;39093;52.788;6.940;2022-08-01T13:19:00;22.30;99.90
53208;DHT22;39093;52.788;6.940;2022-08-01T13:21:30;22.60;99.90
53208;DHT22;39093;52.788;6.940;2022-08-01T13:24:26;23.10;99.90
53208;DHT22;39093;52.788;6.940;2022-08-01T13:26:58;23.30;99.40
53208;DHT22;39093;52.788;6.940;2022-08-01T13:29:37;23.40;98.70
53208;DHT22;39093;52.788;6.940;2022-08-01T13:32:18;23.50;98.70
53208;DHT22;39093;52.788;6.940;2022-08-01T13:35:06;23.60;97.40
53208;DHT22;39093;52.788;6.940;2022-08-01T13:37:35;23.50;97.30
53208;DHT22;39093;52.788;6.940;2022-08-01T13:40:05;23.30;98.00
53208;DHT22;39093;52.788;6.940;2022-08-01T13:42:33;23.00;98.20
53208;DHT22;39093;52.788;6.940;2022-08-01T13:45:00;23.40;99.20
53208;DHT22;39093;52.788;6.940;2022-08-01T13:47:29;23.90;99.10
53208;DHT22;39093;52.788;6.940;2022-08-01T13:49:59;24.20;98.40
53208;DHT22;39093;52.788;6.940;2022-08-01T13:52:29;24.10;96.80
53208;DHT22;39093;52.788;6.940;2022-08-01T13:54:57;24.00;98.20
53208;DHT22;39093;52.788;6.940;2022-08-01T13:57:24;24.30;96.80
53208;DHT22;39093;52.788;6.940;2022-08-01T14:00:05;24.50;96.10
53208;DHT22;39093;52.788;6.940;2022-08-01T14:02:32;24.90;96.20
53208;DHT22;39093;52.788;6.940;2022-08-01T14:04:59;25.60;96.40
53208;DHT22;39093;52.788;6.940;2022-08-01T14:07:28;26.30;95.50
53208;DHT22;39093;52.788;6.940;2022-08-01T14:09:56;26.70;94.90
53208;DHT22;39093;52.788;6.940;2022-08-01T14:12:43;27.20;93.50
53208;DHT22;39093;52.788;6.940;2022-08-01T14:15:11;27.40;92.30
53208;DHT22;39093;52.788;6.940;2022-08-01T14:17:39;27.50;92.00
53208;DHT22;39093;52.788;6.940;2022-08-01T14:20:13;28.00;92.20
53208;DHT22;39093;52.788;6.940;2022-08-01T14:22:40;28.40;91.70
53208;DHT22;39093;52.788;6.940;2022-08-01T14:25:07;28.80;92.10
53208;DHT22;39093;52.788;6.940;2022-08-01T14:27:35;29.10;90.30
53208;DHT22;39093;52.788;6.940;2022-08-01T14:30:03;29.50;88.00
53208;DHT22;39093;52.788;6.940;2022-08-01T14:32:30;29.80;86.30
53208;DHT22;39093;52.788;6.940;2022-08-01T14:35:04;30.20;85.20
53208;DHT22;39093;52.788;6.940;2022-08-01T14:37:32;30.20;82.60
53208;DHT22;39093;52.788;6.940;2022-08-01T14:40:04;30.30;85.00
53208;DHT22;39093;52.788;6.940;2022-08-01T14:42:36;30.50;84.10
53208;DHT22;39093;52.788;6.940;2022-08-01T14:45:04;30.70;84.10
53208;DHT22;39093;52.788;6.940;2022-08-01T14:47:39;30.90;79.40
53208;DHT22;39093;52.788;6.940;2022-08-01T14:50:10;30.80;78.00
53208;DHT22;39093;52.788;6.940;2022-08-01T14:52:39;30.80;78.90
53208;DHT22;39093;52.788;6.940;2022-08-01T14:55:08;30.90;76.50
53208;DHT22;39093;52.788;6.940;2022-08-01T14:57:36;31.10;76.50
53208;DHT22;39093;52.788;6.940;2022-08-01T15:00:06;31.10;75.50
53208;DHT22;39093;52.788;6.940;2022-08-01T15:02:33;30.90;72.60
53208;DHT22;39093;52.788;6.940;2022-08-01T15:05:00;30.10;72.40
53208;DHT22;39093;52.788;6.940;2022-08-01T15:07:27;29.50;72.70
53208;DHT22;39093;52.788;6.940;2022-08-01T15:09:54;28.60;75.80
53208;DHT22;39093;52.788;6.940;2022-08-01T15:12:21;27.90;77.80
53208;DHT22;39093;52.788;6.940;2022-08-01T15:14:48;27.90;78.40
53208;DHT22;39093;52.788;6.940;2022-08-01T16:02:46;23.80;79.60
53208;DHT22;39093;52.788;6.940;2022-08-01T16:05:13;23.40;80.80
53208;DHT22;39093;52.788;6.940;2022-08-01T16:07:46;23.10;81.00
53208;DHT22;39093;52.788;6.940;2022-08-01T16:10:28;22.80;81.80
53208;DHT22;39093;52.788;6.940;2022-08-01T16:12:55;22.60;82.70
53208;DHT22;39093;52.788;6.940;2022-08-01T16:15:22;22.40;83.20
53208;DHT22;39093;52.788;6.940;2022-08-01T16:18:02;22.30;84.40
53208;DHT22;39093;52.788;6.940;2022-08-01T16:20:29;22.20;84.00
53208;DHT22;39093;52.788;6.940;2022-08-01T16:22:56;22.10;83.40
53208;DHT22;39093;52.788;6.940;2022-08-01T16:25:23;22.10;83.70
53208;DHT22;39093;52.788;6.940;2022-08-01T16:27:50;22.00;84.40
53208;DHT22;39093;52.788;6.940;2022-08-01T16:30:17;21.90;84.20
53208;DHT22;39093;52.788;6.940;2022-08-01T16:32:44;21.80;85.00
53208;DHT22;39093;52.788;6.940;2022-08-01T16:35:19;21.70;85.40
53208;DHT22;39093;52.788;6.940;2022-08-01T16:37:46;21.60;85.40
53208;DHT22;39093;52.788;6.940;2022-08-01T16:40:13;21.60;85.30
53208;DHT22;39093;52.788;6.940;2022-08-01T16:42:40;21.50;85.60
53208;DHT22;39093;52.788;6.940;2022-08-01T16:45:07;21.50;86.00
53208;DHT22;39093;52.788;6.940;2022-08-01T16:47:40;21.40;86.30
53208;DHT22;39093;52.788;6.940;2022-08-01T16:50:07;21.40;85.50
53208;DHT22;39093;52.788;6.940;2022-08-01T16:52:35;21.30;85.20
53208;DHT22;39093;52.788;6.940;2022-08-01T16:55:09;21.30;85.70
53208;DHT22;39093;52.788;6.940;2022-08-01T16:57:36;21.30;86.20
53208;DHT22;39093;52.788;6.940;2022-08-01T17:00:05;21.20;85.80
53208;DHT22;39093;52.788;6.940;2022-08-01T17:02:34;21.20;86.30
53208;DHT22;39093;52.788;6.940;2022-08-01T17:05:02;21.10;86.30
53208;DHT22;39093;52.788;6.940;2022-08-01T17:07:38;21.10;87.10
53208;DHT22;39093;52.788;6.940;2022-08-01T17:10:05;21.00;86.60
53208;DHT22;39093;52.788;6.940;2022-08-01T17:12:33;21.00;87.30
53208;DHT22;39093;52.788;6.940;2022-08-01T17:15:01;21.00;86.90
53208;DHT22;39093;52.788;6.940;2022-08-01T17:17:28;21.00;87.10
53208;DHT22;39093;52.788;6.940;2022-08-01T17:19:55;21.00;88.20
53208;DHT22;39093;52.788;6.940;2022-08-01T17:22:21;21.00;87.90
53208;DHT22;39093;52.788;6.940;2022-08-01T17:24:48;20.90;88.00
53208;DHT22;39093;52.788;6.940;2022-08-01T17:27:17;20.90;88.00
53208;DHT22;39093;52.788;6.940;2022-08-01T17:29:45;20.90;87.80
53208;DHT22;39093;52.788;6.940;2022-08-01T17:41:49;20.60;87.60
53208;DHT22;39093;52.788;6.940;2022-08-01T17:44:22;20.50;88.90
53208;DHT22;39093;52.788;6.940;2022-08-01T17:46:51;20.50;88.90
53208;DHT22;39093;52.788;6.940;2022-08-01T17:49:19;20.50;89.80
53208;DHT22;39093;52.788;6.940;2022-08-01T17:52:07;20.40;90.20
53208;DHT22;39093;52.788;6.940;2022-08-01T17:54:35;20.40;90.60
53208;DHT22;39093;52.788;6.940;2022-08-01T17:57:02;20.30;90.80
53208;DHT22;39093;52.788;6.940;2022-08-01T17:59:33;20.30;90.60
53208;DHT22;39093;52.788;6.940;2022-08-01T18:02:02;20.30;90.40
53208;DHT22;39093;52.788;6.940;2022-08-01T18:04:30;20.20;90.50
53208;DHT22;39093;52.788;6.940;2022-08-01T18:06:59;20.20;90.70
53208;DHT22;39093;52.788;6.940;2022-08-01T18:09:29;20.10;91.00
53208;DHT22;39093;52.788;6.940;2022-08-01T18:11:59;20.10;91.00
53208;DHT22;39093;52.788;6.940;2022-08-01T18:14:29;20.00;91.50
53208;DHT22;39093;52.788;6.940;2022-08-01T18:17:07;20.00;91.40